< < Back
Terminal Aerodrome Forecast


Current Version              Previous Versions:   1  2  3  4  5  6  7  8  9  

Terminal Aerodrome Forecast

719
FTUS42 KJAX 080520
TAFJAX
TAF
KJAX 080520Z 0806/0906 25006KT P6SM SKC
     FM081600 24018G28KT P6SM FEW050 SCT250
     FM082200 25015G25KT P6SM SCT030 BKN060
     FM090400 28015G25KT P6SM SCT030 BKN060=



Latest METAR

838
SAUS80 KWBC 080600
MTRJAX
METAR KJAX 080556Z 25004KT 10SM CLR 03/M01 A3003 RMK AO2 SLP168
T00331006 10089 20028 58006 $


USA.gov is the U.S. government's official web portal to all federal, state and local government web resources and services.